Time;durP1;ratioP1;P1;durP2;ratioP2;P2;SDS_P1;SDS_P2;PMS_P1;PMS_P2;Temp;Humidity;BMP_temperature;BMP_pressure;BME280_temperature;BME280_humidity;BME280_pressure;Samples;Min_cycle;Max_cycle;Signal;HPM_P1;HPM_P2
2023/02/09 00:01:04;;;;;;;6.97;5.10;;;;;;;;;;6259966;28;20277;-79
2023/02/09 00:04:14;;;;;;;6.37;5.10;;;;;;;;;;6260717;28;20292;-78
2023/02/09 00:07:19;;;;;;;5.30;4.43;;;;;;;;;;6261062;28;20291;-79
2023/02/09 00:10:24;;;;;;;4.70;4.30;;;;;;;;;;6260613;28;20587;-80
2023/02/09 00:13:30;;;;;;;4.80;4.40;;;;;;;;;;6261314;28;20295;-79
2023/02/09 00:16:35;;;;;;;4.37;4.07;;;;;;;;;;6260369;28;20296;-79
2023/02/09 00:19:40;;;;;;;4.30;3.90;;;;;;;;;;6260711;28;20289;-79
2023/02/09 00:22:46;;;;;;;5.27;4.30;;;;;;;;;;6259590;28;20297;-79
2023/02/09 00:25:51;;;;;;;5.90;4.07;;;;;;;;;;6260478;28;20310;-79
2023/02/09 00:28:57;;;;;;;5.07;3.97;;;;;;;;;;6260420;28;20295;-79
2023/02/09 00:32:02;;;;;;;3.50;3.23;;;;;;;;;;6260145;28;20309;-79
2023/02/09 00:35:08;;;;;;;3.87;3.63;;;;;;;;;;6260241;28;20480;-80
2023/02/09 00:38:14;;;;;;;4.90;3.70;;;;;;;;;;6259102;28;20291;-80
2023/02/09 00:42:04;;;;;;;3.97;3.67;;;;;;;;;;6259248;28;20302;-80
2023/02/09 00:44:46;;;;;;;3.63;3.33;;;;;;;;;;6260017;28;20290;-79
2023/02/09 00:47:53;;;;;;;4.57;3.50;;;;;;;;;;6260449;28;20296;-80
2023/02/09 00:50:58;;;;;;;3.23;3.03;;;;;;;;;;6259975;28;20321;-81
2023/02/09 00:54:04;;;;;;;3.40;2.93;;;;;;;;;;6260793;28;20295;-81
2023/02/09 00:57:10;;;;;;;3.73;3.50;;;;;;;;;;6259031;28;20298;-79
2023/02/09 01:00:18;;;;;;;3.33;2.60;;;;;;;;;;6259799;28;20294;-81
2023/02/09 01:03:24;;;;;;;3.40;3.20;;;;;;;;;;6258406;28;20289;-78
2023/02/09 01:06:30;;;;;;;3.10;2.90;;;;;;;;;;6259795;28;20327;-79
2023/02/09 01:09:35;;;;;;;3.20;3.00;;;;;;;;;;6259790;28;20290;-78
2023/02/09 01:12:43;;;;;;;3.17;2.97;;;;;;;;;;6258100;28;20526;-79
2023/02/09 01:15:50;;;;;;;3.50;3.20;;;;;;;;;;6258998;28;20305;-79
2023/02/09 01:18:58;;;;;;;4.43;3.37;;;;;;;;;;6262634;28;20276;-78
2023/02/09 01:22:05;;;;;;;2.97;2.87;;;;;;;;;;6264769;28;20284;-78
2023/02/09 01:25:10;;;;;;;3.20;3.00;;;;;;;;;;6266601;28;20310;-79
2023/02/09 01:28:16;;;;;;;2.90;2.70;;;;;;;;;;6266330;28;20395;-77
2023/02/09 01:31:25;;;;;;;3.27;3.07;;;;;;;;;;6267319;28;20286;-78
2023/02/09 01:34:30;;;;;;;3.63;3.43;;;;;;;;;;6266744;28;20290;-77
2023/02/09 01:37:36;;;;;;;2.80;2.70;;;;;;;;;;6265656;28;20468;-79
2023/02/09 01:40:46;;;;;;;5.57;2.97;;;;;;;;;;6259297;28;20301;-80
2023/02/09 01:43:53;;;;;;;2.70;2.60;;;;;;;;;;6259280;28;20283;-79
2023/02/09 01:47:00;;;;;;;2.93;2.83;;;;;;;;;;6258091;28;20291;-79
2023/02/09 01:50:08;;;;;;;3.13;2.93;;;;;;;;;;6259910;28;20576;-79
2023/02/09 01:53:14;;;;;;;2.80;2.60;;;;;;;;;;6262009;28;20298;-79
2023/02/09 01:56:26;;;;;;;2.80;2.47;;;;;;;;;;6261792;28;20586;-79
2023/02/09 01:59:33;;;;;;;2.87;2.60;;;;;;;;;;6259686;28;20298;-80
2023/02/09 02:02:40;;;;;;;2.87;2.67;;;;;;;;;;6259351;28;20319;-80
2023/02/09 02:05:53;;;;;;;2.87;2.67;;;;;;;;;;6258041;28;20292;-79
2023/02/09 02:09:01;;;;;;;2.80;2.70;;;;;;;;;;6273893;28;20292;-80
2023/02/09 02:12:07;;;;;;;3.03;2.83;;;;;;;;;;6257671;28;20299;-80
2023/02/09 02:15:12;;;;;;;6.20;2.93;;;;;;;;;;6273783;28;20283;-80
2023/02/09 02:18:28;;;;;;;3.23;2.77;;;;;;;;;;6241588;28;20472;-78
2023/02/09 02:22:07;;;;;;;3.00;2.80;;;;;;;;;;6259294;28;20286;-79
2023/02/09 02:25:50;;;;;;;2.87;2.70;;;;;;;;;;6257705;28;20291;-79
2023/02/09 02:29:34;;;;;;;2.93;2.63;;;;;;;;;;6256909;28;20296;-80
2023/02/09 02:32:55;;;;;;;3.93;2.80;;;;;;;;;;6244253;28;20311;-78
2023/02/09 02:36:08;;;;;;;3.90;2.50;;;;;;;;;;6263306;28;20289;-79
2023/02/09 02:39:18;;;;;;;5.03;2.70;;;;;;;;;;6262619;28;20291;-79
2023/02/09 02:45:53;;;;;;;2.70;2.60;;;;;;;;;;6263055;28;20292;-77
2023/02/09 02:49:03;;;;;;;5.33;2.80;;;;;;;;;;6262295;28;20274;-79
2023/02/09 02:52:11;;;;;;;2.70;2.60;;;;;;;;;;6261716;28;20309;-79
2023/02/09 02:55:19;;;;;;;3.23;2.83;;;;;;;;;;6263043;28;20295;-79
2023/02/09 02:58:26;;;;;;;2.77;2.63;;;;;;;;;;6262974;28;20532;-79
2023/02/09 03:01:34;;;;;;;8.83;3.10;;;;;;;;;;6262749;28;20328;-79
2023/02/09 03:04:41;;;;;;;8.40;2.73;;;;;;;;;;6262160;28;20486;-79
2023/02/09 03:07:46;;;;;;;4.17;2.87;;;;;;;;;;6262473;28;20359;-79
2023/02/09 03:10:52;;;;;;;3.20;2.93;;;;;;;;;;6262100;28;20489;-79
2023/02/09 03:14:12;;;;;;;3.17;2.87;;;;;;;;;;6262554;28;20314;-79
2023/02/09 03:17:25;;;;;;;3.13;2.77;;;;;;;;;;6262547;28;20461;-79
2023/02/09 03:20:37;;;;;;;2.93;2.73;;;;;;;;;;6261883;28;20306;-79
2023/02/09 03:23:47;;;;;;;3.40;2.87;;;;;;;;;;6262245;28;20558;-79
2023/02/09 03:26:55;;;;;;;2.17;2.17;;;;;;;;;;6262323;28;20291;-79
2023/02/09 03:30:03;;;;;;;3.70;3.40;;;;;;;;;;6261714;28;20308;-80
2023/02/09 03:33:19;;;;;;;4.07;3.03;;;;;;;;;;6261029;28;20327;-80
2023/02/09 03:36:30;;;;;;;3.17;3.07;;;;;;;;;;6261916;28;20296;-78
2023/02/09 03:39:35;;;;;;;3.23;3.10;;;;;;;;;;6261747;28;20294;-79
2023/02/09 03:42:41;;;;;;;4.00;3.70;;;;;;;;;;6260530;28;20308;-79
2023/02/09 03:45:46;;;;;;;3.57;3.27;;;;;;;;;;6260751;28;20284;-79
2023/02/09 03:48:51;;;;;;;3.80;3.50;;;;;;;;;;6260394;28;20271;-79
2023/02/09 03:51:59;;;;;;;3.33;3.03;;;;;;;;;;6260445;28;20309;-79
2023/02/09 03:55:05;;;;;;;7.03;3.80;;;;;;;;;;6260210;28;20281;-79
2023/02/09 03:58:13;;;;;;;5.87;3.87;;;;;;;;;;6261020;28;20295;-79
2023/02/09 04:01:18;;;;;;;4.73;3.80;;;;;;;;;;6261353;28;20307;-79
2023/02/09 04:04:24;;;;;;;5.07;3.87;;;;;;;;;;6258641;28;20308;-79
2023/02/09 04:07:31;;;;;;;7.90;3.77;;;;;;;;;;6262818;28;20283;-79
2023/02/09 04:10:36;;;;;;;4.77;3.90;;;;;;;;;;6260503;28;20473;-80
2023/02/09 04:13:41;;;;;;;8.73;4.80;;;;;;;;;;6261635;28;20312;-79
2023/02/09 04:16:47;;;;;;;7.00;4.03;;;;;;;;;;6261838;28;20288;-78
2023/02/09 04:19:51;;;;;;;4.20;3.80;;;;;;;;;;6260408;28;20300;-78
2023/02/09 04:22:58;;;;;;;9.07;4.10;;;;;;;;;;6262323;28;20381;-80
2023/02/09 04:26:04;;;;;;;10.77;4.40;;;;;;;;;;6261628;28;20310;-80
2023/02/09 04:29:09;;;;;;;6.43;4.47;;;;;;;;;;6260772;28;20478;-78
2023/02/09 04:32:14;;;;;;;5.20;4.57;;;;;;;;;;6262230;28;20304;-78
2023/02/09 04:35:19;;;;;;;8.97;4.17;;;;;;;;;;6261476;28;20295;-78
2023/02/09 04:38:26;;;;;;;10.30;4.77;;;;;;;;;;6262191;28;20311;-78
2023/02/09 04:41:31;;;;;;;11.37;4.50;;;;;;;;;;6261227;28;20299;-79
2023/02/09 04:44:36;;;;;;;5.17;4.40;;;;;;;;;;6259809;28;20297;-79
2023/02/09 04:47:41;;;;;;;6.33;4.50;;;;;;;;;;6261496;28;20292;-79
2023/02/09 04:50:47;;;;;;;6.23;4.90;;;;;;;;;;6242595;28;20293;-77
2023/02/09 04:53:54;;;;;;;8.00;4.73;;;;;;;;;;6261112;28;20288;-79
2023/02/09 05:00:18;;;;;;;6.23;5.00;;;;;;;;;;6259194;28;20582;-79
2023/02/09 05:03:24;;;;;;;8.53;5.10;;;;;;;;;;6260760;28;20304;-79
2023/02/09 05:06:29;;;;;;;10.37;5.43;;;;;;;;;;6260718;28;20290;-79
2023/02/09 05:09:36;;;;;;;11.23;5.20;;;;;;;;;;6261047;28;20283;-79
2023/02/09 05:12:41;;;;;;;11.70;5.60;;;;;;;;;;6259368;28;20287;-79
2023/02/09 05:15:46;;;;;;;13.93;5.47;;;;;;;;;;6260529;28;20300;-79
2023/02/09 05:18:51;;;;;;;13.83;5.40;;;;;;;;;;6258528;28;20298;-79
2023/02/09 05:22:00;;;;;;;9.73;5.63;;;;;;;;;;6265743;28;20256;-79
2023/02/09 05:25:46;;;;;;;10.47;5.97;;;;;;;;;;6268518;28;20559;-78
2023/02/09 05:29:01;;;;;;;13.97;5.60;;;;;;;;;;6244676;28;20998;-80
2023/02/09 05:32:06;;;;;;;11.20;5.13;;;;;;;;;;6243292;28;20293;-78
2023/02/09 05:35:12;;;;;;;12.03;5.30;;;;;;;;;;6258605;28;20555;-79
2023/02/09 05:38:21;;;;;;;8.00;5.30;;;;;;;;;;6260302;28;20298;-79
2023/02/09 05:44:51;;;;;;;10.40;5.30;;;;;;;;;;6259576;28;20303;-79
2023/02/09 05:47:56;;;;;;;14.67;5.60;;;;;;;;;;6260669;28;20323;-79
2023/02/09 05:51:01;;;;;;;23.73;6.93;;;;;;;;;;6259881;28;20319;-79
2023/02/09 05:54:06;;;;;;;10.40;5.63;;;;;;;;;;6259760;28;20293;-79
2023/02/09 05:57:13;;;;;;;12.73;5.50;;;;;;;;;;6260692;28;20294;-78
2023/02/09 06:00:19;;;;;;;14.40;5.73;;;;;;;;;;6259874;28;20294;-78
2023/02/09 06:03:24;;;;;;;11.07;5.07;;;;;;;;;;6259289;28;20298;-80
2023/02/09 06:06:30;;;;;;;16.27;6.70;;;;;;;;;;6259361;28;20607;-79
2023/02/09 06:09:35;;;;;;;8.97;5.97;;;;;;;;;;6259486;28;20314;-80
2023/02/09 06:12:41;;;;;;;12.40;4.70;;;;;;;;;;6258752;28;20315;-78
2023/02/09 06:15:47;;;;;;;19.00;6.07;;;;;;;;;;6265337;28;20399;-78
2023/02/09 06:18:52;;;;;;;19.77;6.03;;;;;;;;;;6256490;28;20276;-79
2023/02/09 06:21:58;;;;;;;11.63;6.30;;;;;;;;;;6259725;28;20571;-79
2023/02/09 06:25:03;;;;;;;14.97;6.13;;;;;;;;;;6274937;28;20306;-79
2023/02/09 06:28:10;;;;;;;14.00;6.30;;;;;;;;;;6260099;28;20270;-78
2023/02/09 06:31:16;;;;;;;10.70;5.63;;;;;;;;;;6259732;28;20293;-78
2023/02/09 06:34:22;;;;;;;11.60;6.33;;;;;;;;;;6259372;28;20291;-77
2023/02/09 06:37:28;;;;;;;18.03;6.47;;;;;;;;;;6258289;28;20288;-79
2023/02/09 06:40:33;;;;;;;11.60;6.27;;;;;;;;;;6259226;28;20594;-77
2023/02/09 06:43:39;;;;;;;15.57;6.60;;;;;;;;;;6259715;28;20295;-77
2023/02/09 06:46:45;;;;;;;18.80;6.70;;;;;;;;;;6257388;28;20290;-77
2023/02/09 06:49:51;;;;;;;12.73;6.70;;;;;;;;;;6258969;28;20304;-77
2023/02/09 06:52:57;;;;;;;19.90;6.40;;;;;;;;;;6259584;28;20292;-79
2023/02/09 06:56:02;;;;;;;18.60;6.60;;;;;;;;;;6259288;28;20297;-80
2023/02/09 06:59:09;;;;;;;9.60;5.97;;;;;;;;;;6258978;28;20459;-78
2023/02/09 07:02:14;;;;;;;21.00;6.57;;;;;;;;;;6274338;28;20311;-79
2023/02/09 07:05:20;;;;;;;14.73;5.90;;;;;;;;;;6258866;28;20611;-79
2023/02/09 07:08:25;;;;;;;15.80;6.13;;;;;;;;;;6259898;28;20302;-79
2023/02/09 07:11:31;;;;;;;15.80;6.73;;;;;;;;;;6260156;28;20291;-79
2023/02/09 07:14:37;;;;;;;20.97;6.77;;;;;;;;;;6260338;28;20296;-78
2023/02/09 07:17:43;;;;;;;19.23;6.67;;;;;;;;;;6259000;28;20291;-79
2023/02/09 07:20:55;;;;;;;14.60;5.93;;;;;;;;;;6262362;28;20300;-80
2023/02/09 07:23:59;;;;;;;22.80;6.73;;;;;;;;;;6262464;28;20295;-81
2023/02/09 07:27:05;;;;;;;12.83;7.37;;;;;;;;;;6263740;28;20291;-79
2023/02/09 07:30:16;;;;;;;11.67;7.10;;;;;;;;;;6262939;28;20302;-78
2023/02/09 07:33:22;;;;;;;13.57;6.40;;;;;;;;;;6263468;28;20319;-78
2023/02/09 07:36:28;;;;;;;17.33;7.10;;;;;;;;;;6263070;28;20296;-79
2023/02/09 07:39:33;;;;;;;12.80;6.47;;;;;;;;;;6261452;28;20299;-78
2023/02/09 07:42:38;;;;;;;18.93;6.10;;;;;;;;;;6261656;28;20303;-79
2023/02/09 07:45:46;;;;;;;16.10;7.03;;;;;;;;;;6261385;28;20308;-79
2023/02/09 07:48:52;;;;;;;17.23;6.63;;;;;;;;;;6260434;28;20547;-80
2023/02/09 07:51:57;;;;;;;14.37;7.00;;;;;;;;;;6261950;28;20280;-80
2023/02/09 07:55:02;;;;;;;12.37;6.83;;;;;;;;;;6262632;28;20295;-79
2023/02/09 07:58:07;;;;;;;18.77;6.63;;;;;;;;;;6261684;28;20389;-79
2023/02/09 08:01:15;;;;;;;15.57;7.10;;;;;;;;;;6262400;28;20302;-79
2023/02/09 08:04:20;;;;;;;14.30;7.57;;;;;;;;;;6260248;28;20418;-79
2023/02/09 08:07:26;;;;;;;14.83;6.53;;;;;;;;;;6262370;28;20292;-79
2023/02/09 08:10:32;;;;;;;11.83;6.17;;;;;;;;;;6261954;28;20296;-78
2023/02/09 08:13:39;;;;;;;14.97;6.80;;;;;;;;;;6262194;28;20302;-79
2023/02/09 08:16:46;;;;;;;12.13;6.27;;;;;;;;;;6261444;28;20296;-78
2023/02/09 08:19:53;;;;;;;17.97;6.67;;;;;;;;;;6261525;28;20470;-78
2023/02/09 08:23:04;;;;;;;12.53;6.67;;;;;;;;;;6262238;28;20312;-78
2023/02/09 08:26:14;;;;;;;11.97;7.00;;;;;;;;;;6261650;28;20310;-79
2023/02/09 08:29:19;;;;;;;23.83;7.83;;;;;;;;;;6261220;28;20297;-78
2023/02/09 08:32:28;;;;;;;12.43;6.37;;;;;;;;;;6262290;28;20299;-79
2023/02/09 08:35:33;;;;;;;15.33;7.43;;;;;;;;;;6261806;28;20318;-79
2023/02/09 08:38:39;;;;;;;13.47;6.33;;;;;;;;;;6261776;28;20599;-78
2023/02/09 08:41:44;;;;;;;18.30;6.93;;;;;;;;;;6260013;28;20296;-79
2023/02/09 08:44:50;;;;;;;11.10;6.53;;;;;;;;;;6259723;28;20302;-79
2023/02/09 08:47:57;;;;;;;18.83;6.50;;;;;;;;;;6261757;28;20576;-78
2023/02/09 08:51:02;;;;;;;14.23;6.13;;;;;;;;;;6261110;28;20299;-79
2023/02/09 08:54:08;;;;;;;10.83;6.43;;;;;;;;;;6260783;28;20322;-79
2023/02/09 08:57:13;;;;;;;9.70;6.37;;;;;;;;;;6260461;28;20287;-79
2023/02/09 09:00:19;;;;;;;21.70;6.87;;;;;;;;;;6261232;28;20481;-78
2023/02/09 09:03:28;;;;;;;10.23;6.50;;;;;;;;;;6259660;28;20307;-79
2023/02/09 09:06:34;;;;;;;17.50;6.83;;;;;;;;;;6260924;28;20291;-80
2023/02/09 09:09:39;;;;;;;20.70;5.93;;;;;;;;;;6260810;28;20296;-79
2023/02/09 09:12:44;;;;;;;12.23;5.97;;;;;;;;;;6260771;28;20290;-79
2023/02/09 09:15:50;;;;;;;13.00;6.30;;;;;;;;;;6260508;28;20292;-80
2023/02/09 09:18:56;;;;;;;11.27;6.30;;;;;;;;;;6260198;28;20272;-79
2023/02/09 09:22:02;;;;;;;11.57;5.77;;;;;;;;;;6260892;28;20296;-80
2023/02/09 09:25:07;;;;;;;19.23;6.20;;;;;;;;;;6258750;28;20311;-79
2023/02/09 09:28:13;;;;;;;15.57;6.20;;;;;;;;;;6260524;28;20288;-79
2023/02/09 09:31:19;;;;;;;15.33;5.80;;;;;;;;;;6260484;28;20305;-78
2023/02/09 09:34:26;;;;;;;15.10;6.53;;;;;;;;;;6260157;28;20294;-79
2023/02/09 09:37:31;;;;;;;12.20;6.23;;;;;;;;;;6259575;28;20295;-79
2023/02/09 09:40:40;;;;;;;14.60;5.93;;;;;;;;;;6259860;28;20330;-79
2023/02/09 09:43:45;;;;;;;15.20;6.67;;;;;;;;;;6259640;28;20563;-79
2023/02/09 09:46:52;;;;;;;22.07;6.80;;;;;;;;;;6260861;28;20343;-78
2023/02/09 09:49:59;;;;;;;15.30;6.37;;;;;;;;;;6242548;28;20299;-79
2023/02/09 09:53:10;;;;;;;12.53;5.93;;;;;;;;;;6260840;28;20311;-77
2023/02/09 09:56:20;;;;;;;14.00;5.93;;;;;;;;;;6260196;28;20630;-79
2023/02/09 09:59:28;;;;;;;18.90;6.07;;;;;;;;;;6260108;28;20306;-78
2023/02/09 10:02:35;;;;;;;9.07;6.17;;;;;;;;;;6260175;28;20328;-78
2023/02/09 10:05:44;;;;;;;15.73;7.70;;;;;;;;;;6262065;28;20299;-78
2023/02/09 10:08:53;;;;;;;11.07;6.50;;;;;;;;;;6263136;28;20305;-78
2023/02/09 10:12:15;;;;;;;16.57;5.70;;;;;;;;;;6260888;28;20296;-79
2023/02/09 10:15:27;;;;;;;17.10;6.30;;;;;;;;;;6259594;28;20612;-79
2023/02/09 10:18:36;;;;;;;18.07;7.03;;;;;;;;;;6259989;28;20306;-78
2023/02/09 10:21:43;;;;;;;11.80;6.40;;;;;;;;;;6259336;28;20315;-79
2023/02/09 10:24:48;;;;;;;20.10;7.00;;;;;;;;;;6259381;28;20491;-79
2023/02/09 10:27:54;;;;;;;12.23;6.27;;;;;;;;;;6258765;28;20458;-79
2023/02/09 10:31:01;;;;;;;11.90;5.90;;;;;;;;;;6260039;28;20291;-78
2023/02/09 10:34:12;;;;;;;17.60;6.40;;;;;;;;;;6257599;28;20317;-82
2023/02/09 10:37:28;;;;;;;11.97;6.00;;;;;;;;;;6258926;28;20296;-80
2023/02/09 10:40:34;;;;;;;13.87;6.77;;;;;;;;;;6257893;28;20288;-79
2023/02/09 10:43:39;;;;;;;11.43;6.57;;;;;;;;;;6259790;28;20320;-79
2023/02/09 10:46:45;;;;;;;19.30;7.17;;;;;;;;;;6258706;28;20293;-79
2023/02/09 10:49:54;;;;;;;9.87;5.50;;;;;;;;;;6259367;28;20481;-80
2023/02/09 10:53:02;;;;;;;11.17;5.63;;;;;;;;;;6260453;28;20304;-79
2023/02/09 10:56:16;;;;;;;15.67;6.37;;;;;;;;;;6263993;28;20471;-79
2023/02/09 10:59:23;;;;;;;16.63;7.23;;;;;;;;;;6245933;28;20562;-79
2023/02/09 11:02:49;;;;;;;15.47;6.30;;;;;;;;;;6263910;28;20302;-79
2023/02/09 11:06:00;;;;;;;12.73;5.97;;;;;;;;;;6263879;28;20297;-79
2023/02/09 11:09:11;;;;;;;9.13;6.03;;;;;;;;;;6263786;28;20291;-81
2023/02/09 11:12:19;;;;;;;14.80;6.77;;;;;;;;;;6263935;28;20299;-79
2023/02/09 11:15:27;;;;;;;11.13;6.03;;;;;;;;;;6263220;28;20311;-79
2023/02/09 11:18:34;;;;;;;19.13;5.87;;;;;;;;;;6264262;28;20291;-79
2023/02/09 11:21:53;;;;;;;13.67;6.17;;;;;;;;;;6264113;28;20306;-78
2023/02/09 11:25:05;;;;;;;15.47;6.77;;;;;;;;;;6262169;28;20293;-79
2023/02/09 11:28:32;;;;;;;14.50;6.87;;;;;;;;;;6262814;28;20294;-79
2023/02/09 11:31:54;;;;;;;14.93;6.50;;;;;;;;;;6263069;28;20291;-79
2023/02/09 11:35:08;;;;;;;16.67;6.40;;;;;;;;;;6262182;28;20508;-79
2023/02/09 11:38:17;;;;;;;12.80;6.20;;;;;;;;;;6263749;28;20304;-78
2023/02/09 11:44:55;;;;;;;19.77;7.37;;;;;;;;;;6262539;28;20494;-79
2023/02/09 11:48:10;;;;;;;20.03;6.60;;;;;;;;;;6262746;28;20308;-79
2023/02/09 11:51:18;;;;;;;19.07;6.87;;;;;;;;;;6262258;28;20296;-79
2023/02/09 11:54:26;;;;;;;13.17;6.70;;;;;;;;;;6277679;28;20304;-78
2023/02/09 11:57:36;;;;;;;17.23;6.70;;;;;;;;;;6261970;28;20292;-79
2023/02/09 12:00:46;;;;;;;23.87;7.43;;;;;;;;;;6261916;28;20313;-78
2023/02/09 12:04:17;;;;;;;17.07;6.93;;;;;;;;;;6261121;28;20298;-81
2023/02/09 12:07:30;;;;;;;14.37;6.33;;;;;;;;;;6262137;28;20294;-79
2023/02/09 12:10:42;;;;;;;14.87;6.10;;;;;;;;;;6261954;28;20299;-79
2023/02/09 12:13:58;;;;;;;15.87;6.67;;;;;;;;;;6261951;28;20303;-79
2023/02/09 12:17:11;;;;;;;14.63;6.90;;;;;;;;;;6262923;28;20297;-79
2023/02/09 12:20:44;;;;;;;18.07;6.93;;;;;;;;;;6262381;28;20287;-78
2023/02/09 12:23:50;;;;;;;14.50;7.13;;;;;;;;;;6262384;28;20302;-79
2023/02/09 12:26:56;;;;;;;15.33;6.63;;;;;;;;;;6262800;28;20292;-79
2023/02/09 12:30:09;;;;;;;18.20;7.07;;;;;;;;;;6260367;28;20328;-79
2023/02/09 12:33:18;;;;;;;13.40;6.67;;;;;;;;;;6263216;28;20301;-78
2023/02/09 12:36:29;;;;;;;13.80;7.27;;;;;;;;;;6260446;28;20496;-78
2023/02/09 12:39:34;;;;;;;14.47;7.73;;;;;;;;;;6259718;28;20300;-78
2023/02/09 12:42:41;;;;;;;13.97;7.50;;;;;;;;;;6260445;28;20292;-78
2023/02/09 12:46:22;;;;;;;13.17;7.47;;;;;;;;;;6261433;28;20303;-79
2023/02/09 12:49:44;;;;;;;16.17;7.03;;;;;;;;;;6258804;28;20302;-79
2023/02/09 12:53:41;;;;;;;18.90;8.27;;;;;;;;;;6264525;28;20286;-78
2023/02/09 12:56:46;;;;;;;15.33;7.57;;;;;;;;;;6261246;28;20297;-78
2023/02/09 13:00:24;;;;;;;16.30;7.30;;;;;;;;;;6261546;28;20301;-78
2023/02/09 13:03:31;;;;;;;19.10;8.20;;;;;;;;;;6261123;28;20496;-78
2023/02/09 13:06:41;;;;;;;20.67;7.77;;;;;;;;;;6260608;28;20451;-78
2023/02/09 13:09:48;;;;;;;14.63;8.10;;;;;;;;;;6260278;28;20309;-79
2023/02/09 13:12:57;;;;;;;22.47;8.30;;;;;;;;;;6259832;28;20268;-79
2023/02/09 13:16:34;;;;;;;11.60;7.30;;;;;;;;;;6260455;28;20293;-79
2023/02/09 13:19:53;;;;;;;16.47;8.30;;;;;;;;;;6260914;28;20580;-78
2023/02/09 13:23:09;;;;;;;16.80;7.73;;;;;;;;;;6260834;28;20301;-78
2023/02/09 13:26:20;;;;;;;25.47;8.03;;;;;;;;;;6260595;28;20295;-78
2023/02/09 13:29:26;;;;;;;20.03;8.07;;;;;;;;;;6259309;28;20291;-77
2023/02/09 13:32:38;;;;;;;13.77;8.37;;;;;;;;;;6260885;28;20297;-78
2023/02/09 13:35:55;;;;;;;16.03;9.43;;;;;;;;;;6258736;28;20292;-78
2023/02/09 13:39:00;;;;;;;18.57;8.60;;;;;;;;;;6259980;28;20292;-79
2023/02/09 13:42:15;;;;;;;17.00;9.03;;;;;;;;;;6260545;28;20291;-79
2023/02/09 13:45:25;;;;;;;18.60;9.40;;;;;;;;;;6260286;28;20311;-79
2023/02/09 13:48:33;;;;;;;19.27;8.30;;;;;;;;;;6262051;28;20487;-78
2023/02/09 13:51:39;;;;;;;17.23;8.43;;;;;;;;;;6262307;28;20296;-80
2023/02/09 13:54:45;;;;;;;16.43;8.60;;;;;;;;;;6269930;28;20261;-78
2023/02/09 13:57:54;;;;;;;25.17;8.87;;;;;;;;;;6270098;28;20277;-79
2023/02/09 14:01:02;;;;;;;27.17;9.07;;;;;;;;;;6271908;28;20299;-80
2023/02/09 14:04:13;;;;;;;26.00;8.60;;;;;;;;;;6271457;28;20269;-78
2023/02/09 14:07:21;;;;;;;19.63;9.17;;;;;;;;;;6267923;28;20298;-78
2023/02/09 14:10:27;;;;;;;16.93;8.80;;;;;;;;;;6260162;28;20296;-79
2023/02/09 14:13:35;;;;;;;22.10;9.03;;;;;;;;;;6260662;28;20292;-79
2023/02/09 14:16:40;;;;;;;23.37;8.77;;;;;;;;;;6258700;28;20295;-76
2023/02/09 14:19:58;;;;;;;19.57;8.93;;;;;;;;;;6258578;28;20302;-78
2023/02/09 14:23:15;;;;;;;22.43;8.67;;;;;;;;;;6260338;28;20471;-78
2023/02/09 14:26:25;;;;;;;23.60;9.03;;;;;;;;;;6259855;28;20313;-79
2023/02/09 14:29:32;;;;;;;14.87;7.93;;;;;;;;;;6262953;28;20291;-79
2023/02/09 14:32:39;;;;;;;15.33;8.43;;;;;;;;;;6263677;28;20580;-79
2023/02/09 14:35:44;;;;;;;21.97;8.60;;;;;;;;;;6263199;28;20299;-79
2023/02/09 14:38:52;;;;;;;24.87;9.10;;;;;;;;;;6264092;28;20319;-79
2023/02/09 14:42:17;;;;;;;20.50;8.63;;;;;;;;;;6265264;28;20314;-79
2023/02/09 14:45:30;;;;;;;17.97;8.40;;;;;;;;;;6263979;28;20604;-79
2023/02/09 14:48:35;;;;;;;24.30;8.90;;;;;;;;;;6263276;28;20291;-79
2023/02/09 14:51:40;;;;;;;18.13;9.20;;;;;;;;;;6263823;28;20296;-83
2023/02/09 14:54:48;;;;;;;21.30;8.40;;;;;;;;;;6264524;28;20302;-84
2023/02/09 14:57:53;;;;;;;18.30;8.67;;;;;;;;;;6264164;28;20274;-77
2023/02/09 15:01:01;;;;;;;22.60;9.53;;;;;;;;;;6263538;28;20298;-79
2023/02/09 15:04:06;;;;;;;22.43;9.63;;;;;;;;;;6261846;28;20319;-81
2023/02/09 15:07:14;;;;;;;17.83;8.87;;;;;;;;;;6264483;28;20301;-79
2023/02/09 15:10:25;;;;;;;20.10;8.60;;;;;;;;;;6264039;28;20327;-84
2023/02/09 15:13:31;;;;;;;18.00;8.77;;;;;;;;;;6238450;28;20294;-79
2023/02/09 15:16:37;;;;;;;20.37;8.00;;;;;;;;;;6237229;28;20299;-76
2023/02/09 15:19:42;;;;;;;16.03;8.73;;;;;;;;;;6238342;28;20312;-75
2023/02/09 15:22:48;;;;;;;18.73;9.43;;;;;;;;;;6239379;28;20294;-74
2023/02/09 15:25:54;;;;;;;24.27;9.37;;;;;;;;;;6237730;28;20304;-76
2023/02/09 15:29:00;;;;;;;19.87;9.30;;;;;;;;;;6253664;28;20301;-76
2023/02/09 15:32:14;;;;;;;20.67;9.27;;;;;;;;;;6221559;28;20299;-78
2023/02/09 15:35:21;;;;;;;16.10;8.83;;;;;;;;;;6238636;28;20306;-77
2023/02/09 15:38:27;;;;;;;17.17;9.33;;;;;;;;;;6238986;28;20296;-78
2023/02/09 15:48:19;;;;;;;20.20;8.93;;;;;;;;;;6238424;28;20292;-77
2023/02/09 15:51:30;;;;;;;21.37;9.03;;;;;;;;;;6237715;28;20307;-78
2023/02/09 15:54:35;;;;;;;20.67;8.87;;;;;;;;;;6237754;28;20292;-79
2023/02/09 15:57:41;;;;;;;24.23;8.80;;;;;;;;;;6253752;28;20322;-77
2023/02/09 16:00:46;;;;;;;18.47;8.17;;;;;;;;;;6238303;28;20295;-78
2023/02/09 16:03:52;;;;;;;16.40;8.30;;;;;;;;;;6236834;28;20296;-79
2023/02/09 16:07:07;;;;;;;20.10;8.50;;;;;;;;;;6238291;28;20296;-79
2023/02/09 16:10:15;;;;;;;23.47;9.77;;;;;;;;;;6237916;28;20295;-80
2023/02/09 16:13:25;;;;;;;15.03;8.60;;;;;;;;;;6245175;28;20295;-79
2023/02/09 16:16:30;;;;;;;17.67;8.67;;;;;;;;;;6277618;28;20318;-79
2023/02/09 16:19:36;;;;;;;23.53;8.67;;;;;;;;;;6260579;28;20291;-78
2023/02/09 16:22:43;;;;;;;17.97;8.57;;;;;;;;;;6260788;28;20299;-80
2023/02/09 16:25:50;;;;;;;23.00;8.87;;;;;;;;;;6260481;28;20300;-78
2023/02/09 16:28:56;;;;;;;24.30;8.30;;;;;;;;;;6261458;28;20299;-78
2023/02/09 16:32:02;;;;;;;20.60;7.93;;;;;;;;;;6262119;28;20294;-78
2023/02/09 16:35:09;;;;;;;18.10;8.60;;;;;;;;;;6261507;28;20302;-77
2023/02/09 16:38:23;;;;;;;17.03;7.63;;;;;;;;;;6261792;28;20299;-79
2023/02/09 16:44:52;;;;;;;18.87;8.33;;;;;;;;;;6261205;28;20297;-79
2023/02/09 16:47:58;;;;;;;21.20;8.73;;;;;;;;;;6277623;28;20303;-79
2023/02/09 16:51:06;;;;;;;16.00;8.30;;;;;;;;;;6261439;28;20592;-79
2023/02/09 16:54:12;;;;;;;17.00;7.07;;;;;;;;;;6264194;28;20291;-80
2023/02/09 16:57:21;;;;;;;19.20;10.40;;;;;;;;;;6236102;28;20284;-81
2023/02/09 17:00:30;;;;;;;21.20;9.57;;;;;;;;;;6236502;28;20302;-78
2023/02/09 17:03:36;;;;;;;18.60;8.30;;;;;;;;;;6236649;28;20303;-79
2023/02/09 17:06:43;;;;;;;19.73;7.00;;;;;;;;;;6236370;28;20299;-79
2023/02/09 17:09:49;;;;;;;13.37;6.43;;;;;;;;;;6236328;28;20300;-78
2023/02/09 17:12:54;;;;;;;12.53;6.43;;;;;;;;;;6256252;28;20290;-79
2023/02/09 17:16:02;;;;;;;17.30;6.67;;;;;;;;;;6260660;28;20298;-80
2023/02/09 17:19:11;;;;;;;15.87;6.27;;;;;;;;;;6260153;28;20296;-78
2023/02/09 17:22:17;;;;;;;16.50;6.70;;;;;;;;;;6260870;28;20468;-78
2023/02/09 17:25:24;;;;;;;12.67;5.90;;;;;;;;;;6259001;28;20296;-80
2023/02/09 17:28:29;;;;;;;14.03;6.47;;;;;;;;;;6260723;28;20572;-79
2023/02/09 17:31:37;;;;;;;21.23;6.90;;;;;;;;;;6260873;28;20468;-79
2023/02/09 17:34:57;;;;;;;17.50;6.47;;;;;;;;;;6260712;28;20293;-79
2023/02/09 17:38:02;;;;;;;19.37;6.70;;;;;;;;;;6259866;28;20295;-79
2023/02/09 17:41:14;;;;;;;13.70;5.63;;;;;;;;;;6260046;28;20295;-79
2023/02/09 17:44:20;;;;;;;14.67;5.73;;;;;;;;;;6259987;28;20480;-79
2023/02/09 17:47:47;;;;;;;13.93;6.43;;;;;;;;;;6261331;28;20293;-79
2023/02/09 17:50:55;;;;;;;15.13;5.77;;;;;;;;;;6260930;28;20470;-79
2023/02/09 17:54:02;;;;;;;13.43;6.70;;;;;;;;;;6262450;28;20588;-78
2023/02/09 17:57:11;;;;;;;12.93;6.30;;;;;;;;;;6262032;28;20599;-78
2023/02/09 18:00:17;;;;;;;15.70;5.80;;;;;;;;;;6260398;28;20299;-78
2023/02/09 18:03:25;;;;;;;9.37;5.97;;;;;;;;;;6262477;28;20301;-78
2023/02/09 18:06:34;;;;;;;13.07;5.73;;;;;;;;;;6261649;28;20304;-81
2023/02/09 18:09:39;;;;;;;9.73;5.53;;;;;;;;;;6258933;28;20303;-79
2023/02/09 18:12:45;;;;;;;8.40;5.43;;;;;;;;;;6259998;28;20298;-80
2023/02/09 18:15:51;;;;;;;13.37;6.27;;;;;;;;;;6259617;28;20292;-79
2023/02/09 18:18:58;;;;;;;17.30;6.03;;;;;;;;;;6257577;28;20276;-78
2023/02/09 18:22:03;;;;;;;18.10;7.07;;;;;;;;;;6242900;28;20272;-79
2023/02/09 18:25:16;;;;;;;15.60;5.70;;;;;;;;;;6259501;28;20311;-79
2023/02/09 18:28:21;;;;;;;9.77;5.50;;;;;;;;;;6259029;28;20307;-78
2023/02/09 18:31:28;;;;;;;14.13;5.73;;;;;;;;;;6260261;28;20444;-79
2023/02/09 18:34:36;;;;;;;13.20;5.27;;;;;;;;;;6259930;28;20593;-78
2023/02/09 18:37:42;;;;;;;12.30;5.87;;;;;;;;;;6265239;28;20296;-80
2023/02/09 18:40:50;;;;;;;22.07;5.33;;;;;;;;;;6265420;28;20287;-80
2023/02/09 18:43:55;;;;;;;13.83;5.43;;;;;;;;;;6264133;28;20293;-78
2023/02/09 18:47:01;;;;;;;5.00;3.70;;;;;;;;;;6260979;28;20291;-79
2023/02/09 18:50:09;;;;;;;10.33;4.63;;;;;;;;;;6259782;28;20303;-77
2023/02/09 18:53:17;;;;;;;11.73;5.20;;;;;;;;;;6258634;28;20318;-78
2023/02/09 18:56:24;;;;;;;11.07;5.10;;;;;;;;;;6259401;28;20743;-79
2023/02/09 18:59:30;;;;;;;11.53;4.73;;;;;;;;;;6259213;28;20311;-79
2023/02/09 19:02:35;;;;;;;10.63;4.57;;;;;;;;;;6258292;28;20307;-78